Главная страница
METAR-TAF:

METAR-TAF

Аэропорты :

Ханой, Вьетнам

широта: 21-01N, долгота: 105-48E, высота над уровнем моря: 6 м

Текущие метеонаблюдения

Эта сводка был подготовлена 28 минут назад, в 06:00 UTC
Ветер 11 Узел от восточно-юго-восточный
Температура 27°C
Влажность 66%
Давление 1011 hPa
Видимость 10 км и более
небольшая облачность на высоте 2100 фута
Рассеянная облачность на высоте 2700 фута

METAR: VVNB 130600Z 12011KT 9999 FEW021 BKN027 27/20 Q1011 NOSIG

Время: 13:28 (06:28 UTC)

Прогноз

Эта сводка был подготовлена 7 часа и 28 минут назад, в 23:00 UTC
Прогноз действительный с 13-го 00 UTC до 13-го 24 UTC
Ветер 6 Узел от северо-восточный
Видимость: 4000 м
Отдельные облака на высоте 2000 фута
Рассеянная облачность на высоте 5000 фута
дымка
изменения
С 13-го 01 UTC до 13-го 02 UTC
Видимость: 7000 м

TAF: VVNB 122300Z 1300/1324 05006KT 4000 BR SCT020 BKN050 BECMG 1301/1302 7000 NSW

Метеонаблюдения и прогнозы для более 4000 аэропортов (сводки METAR и TAF).

Имеющиеся станции представлены на карте желтыми и красными точками.

Чтобы увидеть название станции, наведите на нее мышь.

Затем щелкните, чтобы увидеть метеонаблюдения и метеопрогнозы.

Управление картой: чтобы увеличить масштаб, щелкните зеленые кнопки с черным крестиком; чтобы уменьшить масштаб, щелкните зеленую кнопку с тире; для просмотра соседних карт щелкайте зеленые стрелки.


METAR-TAF: